createdAt,value
2023-01-30T00:01:49.994Z,54.62
2023-01-30T00:06:55.421Z,54.20
2023-01-30T00:12:00.750Z,55.16
2023-01-30T00:17:06.148Z,56.34
2023-01-30T00:22:11.677Z,55.65
2023-01-30T00:27:17.329Z,54.60
2023-01-30T00:32:22.659Z,54.51
2023-01-30T00:37:28.051Z,53.90
2023-01-30T00:42:55.509Z,54.63
2023-01-30T00:48:01.194Z,54.91
2023-01-30T00:53:06.479Z,54.33
2023-01-30T00:58:12.612Z,54.42
2023-01-30T01:03:18.337Z,55.32
2023-01-30T01:08:23.753Z,56.35
2023-01-30T01:13:29.295Z,55.99
2023-01-30T01:18:34.713Z,55.53
2023-01-30T01:23:40.440Z,55.06
2023-01-30T01:28:45.861Z,54.49
2023-01-30T01:33:52.026Z,53.66
2023-01-30T01:38:57.399Z,53.44
2023-01-30T01:44:12.311Z,53.46
2023-01-30T01:49:33.531Z,54.19
2023-01-30T01:54:53.528Z,54.77
2023-01-30T02:00:16.009Z,54.96
2023-01-30T02:05:22.049Z,55.17
2023-01-30T02:10:38.640Z,55.91
2023-01-30T02:15:44.602Z,56.88
2023-01-30T02:21:16.083Z,56.52
2023-01-30T02:26:56.970Z,54.78
2023-01-30T02:32:20.822Z,55.04
2023-01-30T02:37:45.871Z,56.02
2023-01-30T02:43:09.793Z,55.32
2023-01-30T02:48:27.394Z,54.44
2023-01-30T02:53:37.485Z,53.66
2023-01-30T02:58:52.298Z,54.64
2023-01-30T03:04:31.130Z,54.70
2023-01-30T03:10:00.175Z,54.31
2023-01-30T03:15:13.971Z,54.83
2023-01-30T03:20:21.551Z,54.18
2023-01-30T03:25:29.663Z,53.65
2023-01-30T03:30:35.259Z,54.38
2023-01-30T03:36:06.885Z,55.32
2023-01-30T03:41:13.861Z,56.17
2023-01-30T03:46:19.501Z,56.24
2023-01-30T03:51:25.563Z,56.57
2023-01-30T03:56:32.339Z,56.90
2023-01-30T04:01:38.318Z,56.93
2023-01-30T04:06:44.102Z,56.89
2023-01-30T04:11:49.985Z,57.89
2023-01-30T04:16:56.973Z,57.83
2023-01-30T04:22:37.189Z,56.63
2023-01-30T04:27:42.899Z,55.23
2023-01-30T04:33:14.951Z,57.42
2023-01-30T04:38:21.218Z,55.96
2023-01-30T04:43:28.803Z,55.35
2023-01-30T04:49:03.257Z,56.20
2023-01-30T04:54:07.587Z,56.84
2023-01-30T04:59:12.652Z,57.01
2023-01-30T05:04:22.562Z,56.97
2023-01-30T05:09:27.016Z,57.47
2023-01-30T05:14:31.667Z,57.01
2023-01-30T05:19:36.705Z,56.67
2023-01-30T05:24:40.903Z,57.55
2023-01-30T05:29:45.340Z,56.70
2023-01-30T05:34:50.619Z,55.49
2023-01-30T05:39:54.851Z,54.36
2023-01-30T05:44:59.168Z,53.61
2023-01-30T05:50:03.311Z,51.41
2023-01-30T05:55:07.992Z,52.25
2023-01-30T06:00:12.735Z,51.97
2023-01-30T06:05:20.005Z,51.66
2023-01-30T06:10:24.202Z,50.74
2023-01-30T06:15:28.602Z,50.71
2023-01-30T06:20:32.945Z,50.00
2023-01-30T06:25:37.987Z,48.83
2023-01-30T06:30:44.005Z,47.91
2023-01-30T06:35:53.280Z,48.52
2023-01-30T06:40:57.422Z,48.97
2023-01-30T06:46:01.803Z,48.05
2023-01-30T06:51:06.081Z,49.03
2023-01-30T06:56:10.369Z,49.27
2023-01-30T07:01:15.283Z,48.74
2023-01-30T07:06:19.920Z,49.79
2023-01-30T07:11:24.117Z,47.56
2023-01-30T07:16:29.984Z,47.87
2023-01-30T07:21:34.204Z,49.06
2023-01-30T07:26:38.553Z,49.11
2023-01-30T07:31:42.832Z,49.28
2023-01-30T07:36:48.004Z,48.70
2023-01-30T07:41:57.000Z,48.86
2023-01-30T07:47:02.419Z,49.50
2023-01-30T07:52:07.015Z,49.67
2023-01-30T07:57:11.135Z,49.99
2023-01-30T08:02:15.280Z,50.81
2023-01-30T08:07:19.880Z,50.64
2023-01-30T08:12:24.117Z,50.96
2023-01-30T08:17:29.543Z,50.82
2023-01-30T08:22:34.266Z,49.85
2023-01-30T08:27:38.544Z,50.57
2023-01-30T08:32:42.940Z,50.35
2023-01-30T08:37:46.969Z,49.42
2023-01-30T08:42:51.170Z,49.51
2023-01-30T08:48:00.476Z,49.46
2023-01-30T08:53:06.772Z,49.00
2023-01-30T08:58:10.932Z,48.58
2023-01-30T09:03:16.468Z,48.99
2023-01-30T09:08:20.583Z,48.01
2023-01-30T09:13:24.638Z,46.00
2023-01-30T09:18:28.785Z,46.94
2023-01-30T09:23:33.153Z,46.95
2023-01-30T09:28:37.444Z,46.28
2023-01-30T09:33:41.565Z,46.19
2023-01-30T09:38:45.683Z,45.46
2023-01-30T09:44:14.685Z,45.75
2023-01-30T09:49:49.897Z,44.82
2023-01-30T09:55:19.411Z,45.32
2023-01-30T10:00:39.940Z,45.83
2023-01-30T10:06:12.327Z,45.79
2023-01-30T10:11:36.275Z,45.57
2023-01-30T10:17:00.260Z,46.80
2023-01-30T10:22:32.973Z,46.77
2023-01-30T10:27:38.456Z,46.01
2023-01-30T10:32:52.347Z,46.10
2023-01-30T10:38:23.012Z,46.61
2023-01-30T10:43:37.751Z,47.17
2023-01-30T10:48:53.767Z,47.43
2023-01-30T10:54:13.975Z,46.69
2023-01-30T10:59:55.307Z,47.21
2023-01-30T11:05:01.883Z,46.56
2023-01-30T11:10:17.750Z,46.10
2023-01-30T11:15:25.278Z,45.83
2023-01-30T11:20:29.339Z,46.36
2023-01-30T11:31:40.829Z,46.26
2023-01-30T11:36:49.114Z,45.52
2023-01-30T11:41:57.025Z,46.70
2023-01-30T11:47:26.239Z,47.42
2023-01-30T11:52:35.630Z,46.81
2023-01-30T11:57:44.217Z,46.06
2023-01-30T12:02:50.693Z,46.98
2023-01-30T12:08:11.646Z,47.32
2023-01-30T12:13:44.158Z,46.73
2023-01-30T12:19:07.966Z,48.57
2023-01-30T12:24:35.367Z,47.48
2023-01-30T12:30:04.967Z,47.66
2023-01-30T12:35:19.324Z,49.65
2023-01-30T12:40:55.919Z,49.27
2023-01-30T12:46:12.413Z,49.77
2023-01-30T12:51:33.647Z,50.06
2023-01-30T12:56:53.275Z,50.58
2023-01-30T13:02:23.139Z,51.21
2023-01-30T13:07:49.377Z,51.55
2023-01-30T13:13:16.689Z,51.42
2023-01-30T13:19:03.947Z,51.60
2023-01-30T13:24:44.142Z,52.76
2023-01-30T13:29:48.981Z,52.38
2023-01-30T13:34:55.162Z,52.86
2023-01-30T13:40:12.631Z,52.83
2023-01-30T13:45:41.583Z,53.39
2023-01-30T13:51:18.702Z,53.31
2023-01-30T13:56:43.074Z,53.21
2023-01-30T14:02:26.494Z,53.84
2023-01-30T14:07:43.014Z,54.35
2023-01-30T14:12:51.486Z,54.15
2023-01-30T14:18:27.926Z,54.09
2023-01-30T14:24:06.360Z,54.48
2023-01-30T14:29:12.263Z,54.74
2023-01-30T14:34:43.026Z,53.66
2023-01-30T14:39:54.650Z,54.26
2023-01-30T14:45:17.730Z,54.07
2023-01-30T14:50:24.446Z,54.41
2023-01-30T14:55:30.178Z,53.77
2023-01-30T15:00:39.662Z,53.99
2023-01-30T15:05:48.227Z,53.95
2023-01-30T15:10:53.680Z,53.31
2023-01-30T15:16:48.023Z,53.97
2023-01-30T15:22:18.519Z,52.95
2023-01-30T15:27:58.801Z,52.33
2023-01-30T15:33:29.827Z,53.12
2023-01-30T15:38:38.423Z,53.51
2023-01-30T15:44:03.279Z,53.37
2023-01-30T15:49:51.643Z,53.58
2023-01-30T15:55:00.368Z,53.50
2023-01-30T16:00:10.110Z,53.24
2023-01-30T16:05:25.392Z,53.67
2023-01-30T16:10:31.921Z,53.48
2023-01-30T16:15:51.194Z,53.91
2023-01-30T16:21:05.070Z,53.91
2023-01-30T16:26:18.581Z,54.06
2023-01-30T16:31:26.483Z,54.17
2023-01-30T16:36:41.662Z,54.38
2023-01-30T16:41:57.867Z,54.91
2023-01-30T16:47:06.549Z,55.37
2023-01-30T16:52:17.698Z,55.04
2023-01-30T16:58:00.907Z,55.29
2023-01-30T17:03:46.456Z,55.17
2023-01-30T17:08:54.658Z,54.80
2023-01-30T17:14:31.174Z,54.02
2023-01-30T17:19:38.046Z,54.91
2023-01-30T17:24:43.550Z,54.44
2023-01-30T17:29:49.931Z,54.43
2023-01-30T17:34:56.584Z,55.07
2023-01-30T17:40:02.180Z,54.46
2023-01-30T17:45:07.995Z,54.57
2023-01-30T17:50:15.138Z,54.96
2023-01-30T17:55:21.983Z,54.09
2023-01-30T18:00:27.590Z,54.26
2023-01-30T18:05:33.419Z,55.50
2023-01-30T18:10:38.711Z,54.91
2023-01-30T18:15:43.989Z,55.32
2023-01-30T18:20:49.305Z,55.37
2023-01-30T18:25:54.745Z,55.15
2023-01-30T18:31:00.528Z,55.20
2023-01-30T18:36:11.051Z,53.82
2023-01-30T18:41:41.221Z,54.07
2023-01-30T18:46:47.172Z,53.37
2023-01-30T18:51:52.724Z,53.68
2023-01-30T18:56:58.463Z,54.25
2023-01-30T19:02:04.100Z,54.27
2023-01-30T19:07:09.204Z,54.19
2023-01-30T19:12:34.351Z,53.31
2023-01-30T19:17:39.788Z,53.63
2023-01-30T19:22:45.339Z,53.62
2023-01-30T19:27:50.983Z,53.59
2023-01-30T19:32:58.767Z,53.35
2023-01-30T19:38:05.298Z,53.88
2023-01-30T19:43:37.411Z,54.26
2023-01-30T19:48:44.206Z,55.06
2023-01-30T19:54:01.635Z,54.69
2023-01-30T19:59:06.944Z,55.04
2023-01-30T20:04:12.481Z,54.70
2023-01-30T20:09:18.217Z,54.55
2023-01-30T20:14:23.542Z,54.79
2023-01-30T20:19:29.053Z,54.61
2023-01-30T20:24:35.329Z,54.76
2023-01-30T20:29:40.754Z,54.81
2023-01-30T20:34:46.276Z,54.99
2023-01-30T20:39:51.849Z,55.18
2023-01-30T20:44:57.542Z,55.46
2023-01-30T20:50:03.117Z,56.58
2023-01-30T20:55:09.498Z,56.04
2023-01-30T21:00:15.159Z,56.29
2023-01-30T21:05:21.112Z,56.13
2023-01-30T21:10:26.560Z,56.16
2023-01-30T21:15:31.987Z,57.08
2023-01-30T21:20:37.950Z,57.31
2023-01-30T21:25:43.543Z,56.36
2023-01-30T21:30:49.491Z,57.08
2023-01-30T21:35:55.180Z,56.19
2023-01-30T21:41:19.997Z,56.75
2023-01-30T21:46:25.551Z,57.63
2023-01-30T21:51:31.116Z,58.69
2023-01-30T21:56:36.715Z,58.73
2023-01-30T22:01:42.596Z,58.58
2023-01-30T22:06:47.808Z,58.46
2023-01-30T22:11:53.712Z,58.41
2023-01-30T22:16:59.234Z,58.17
2023-01-30T22:22:05.008Z,57.83
2023-01-30T22:27:10.114Z,57.75
2023-01-30T22:32:15.302Z,58.75
2023-01-30T22:37:20.742Z,57.99
2023-01-30T22:42:26.457Z,58.08
2023-01-30T22:47:31.996Z,58.19
2023-01-30T22:52:37.333Z,58.14
2023-01-30T22:57:42.758Z,58.38
2023-01-30T23:02:48.232Z,58.69
2023-01-30T23:07:53.708Z,58.64
2023-01-30T23:13:08.743Z,59.37
2023-01-30T23:18:34.887Z,59.59
2023-01-30T23:23:40.800Z,60.13
2023-01-30T23:28:46.621Z,60.27
2023-01-30T23:34:18.390Z,60.61
2023-01-30T23:39:23.892Z,60.12
2023-01-30T23:44:29.167Z,60.69
2023-01-30T23:49:35.345Z,59.35
2023-01-30T23:54:40.832Z,59.45
2023-01-30T23:59:45.910Z,58.98
